createdAt,value
2022-10-25T00:02:02.138Z,98394.00
2022-10-25T00:04:32.135Z,98393.00
2022-10-25T00:07:01.976Z,98397.00
2022-10-25T00:09:31.786Z,98392.00
2022-10-25T00:12:01.668Z,98395.00
2022-10-25T00:14:34.178Z,98393.00
2022-10-25T00:17:04.150Z,98392.00
2022-10-25T00:19:34.024Z,98389.00
2022-10-25T00:22:03.870Z,98395.00
2022-10-25T00:24:33.743Z,98403.00
2022-10-25T00:27:03.593Z,98399.00
2022-10-25T00:29:36.058Z,98404.00
2022-10-25T00:32:06.007Z,98395.00
2022-10-25T00:34:35.858Z,98387.00
2022-10-25T00:37:05.708Z,98396.00
2022-10-25T00:39:35.604Z,98386.00
2022-10-25T00:42:05.511Z,98389.00
2022-10-25T00:44:55.464Z,98404.00
2022-10-25T00:47:31.818Z,98403.00
2022-10-25T00:50:04.488Z,98402.00
2022-10-25T00:52:36.991Z,98401.00
2022-10-25T00:55:08.990Z,98402.00
2022-10-25T00:57:42.154Z,98399.00
2022-10-25T01:00:15.675Z,98398.00
2022-10-25T01:02:45.971Z,98398.00
2022-10-25T01:05:16.279Z,98393.00
2022-10-25T01:07:46.419Z,98397.00
2022-10-25T01:10:16.613Z,98385.00
2022-10-25T01:12:48.709Z,98375.00
2022-10-25T01:15:24.935Z,98383.00
2022-10-25T01:17:57.770Z,98380.00
2022-10-25T01:20:59.843Z,98375.00
2022-10-25T01:23:46.161Z,98385.00
2022-10-25T01:26:34.693Z,98386.00
2022-10-25T01:29:27.124Z,98392.00
2022-10-25T01:32:00.751Z,98396.00
2022-10-25T01:34:34.380Z,98390.00
2022-10-25T01:37:09.219Z,98396.00
2022-10-25T01:39:44.889Z,98385.00
2022-10-25T01:42:19.491Z,98392.00
2022-10-25T01:44:56.925Z,98381.00
2022-10-25T01:47:35.586Z,98384.00
2022-10-25T01:50:07.121Z,98392.00
2022-10-25T01:52:37.162Z,98388.00
2022-10-25T01:55:09.679Z,98401.00
2022-10-25T01:57:58.717Z,98399.00
2022-10-25T02:00:29.275Z,98401.00
2022-10-25T02:03:18.324Z,98392.00
2022-10-25T02:05:56.770Z,98395.00
2022-10-25T02:08:32.910Z,98393.00
2022-10-25T02:11:08.566Z,98395.00
2022-10-25T02:13:47.543Z,98388.00
2022-10-25T02:16:20.324Z,98403.00
2022-10-25T02:18:56.592Z,98398.00
2022-10-25T02:21:27.706Z,98387.00
2022-10-25T02:23:57.951Z,98389.00
2022-10-25T02:26:28.129Z,98394.00
2022-10-25T02:28:58.090Z,98393.00
2022-10-25T02:31:28.979Z,98399.00
2022-10-25T02:34:01.612Z,98396.00
2022-10-25T02:36:31.469Z,98406.00
2022-10-25T02:39:02.493Z,98400.00
2022-10-25T02:41:33.917Z,98408.00
2022-10-25T02:44:03.745Z,98400.00
2022-10-25T02:46:33.569Z,98396.00
2022-10-25T02:49:06.355Z,98393.00
2022-10-25T02:51:36.216Z,98385.00
2022-10-25T02:54:06.250Z,98396.00
2022-10-25T02:56:36.133Z,98390.00
2022-10-25T02:59:05.953Z,98394.00
2022-10-25T03:01:35.928Z,98388.00
2022-10-25T03:04:08.458Z,98396.00
2022-10-25T03:06:38.337Z,98396.00
2022-10-25T03:09:08.381Z,98398.00
2022-10-25T03:11:38.280Z,98410.00
2022-10-25T03:14:08.098Z,98397.00
2022-10-25T03:16:37.972Z,98401.00
2022-10-25T03:19:10.555Z,98402.00
2022-10-25T03:21:41.931Z,98394.00
2022-10-25T03:24:12.141Z,98396.00
2022-10-25T03:26:41.956Z,98389.00
2022-10-25T03:29:11.797Z,98398.00
2022-10-25T03:31:41.642Z,98388.00
2022-10-25T03:34:14.098Z,98385.00
2022-10-25T03:36:43.960Z,98377.00
2022-10-25T03:39:13.830Z,98380.00
2022-10-25T03:41:43.675Z,98370.00
2022-10-25T03:44:13.513Z,98380.00
2022-10-25T03:46:43.490Z,98372.00
2022-10-25T03:49:15.914Z,98374.00
2022-10-25T03:51:45.731Z,98375.00
2022-10-25T03:54:15.598Z,98380.00
2022-10-25T03:56:45.467Z,98376.00
2022-10-25T03:59:15.310Z,98399.00
2022-10-25T04:01:45.237Z,98407.00
2022-10-25T04:04:17.736Z,98411.00
2022-10-25T04:06:47.855Z,98411.00
2022-10-25T04:09:18.073Z,98411.00
2022-10-25T04:11:47.930Z,98417.00
2022-10-25T04:14:17.779Z,98417.00
2022-10-25T04:16:47.633Z,98413.00
2022-10-25T04:19:20.201Z,98410.00
2022-10-25T04:21:50.074Z,98406.00
2022-10-25T04:24:20.063Z,98406.00
2022-10-25T04:26:49.894Z,98401.00
2022-10-25T04:29:20.242Z,98404.00
2022-10-25T04:31:50.166Z,98406.00
2022-10-25T04:34:22.593Z,98412.00
2022-10-25T04:36:52.430Z,98407.00
2022-10-25T04:39:22.282Z,98407.00
2022-10-25T04:41:52.128Z,98405.00
2022-10-25T04:44:21.960Z,98412.00
2022-10-25T04:46:51.887Z,98415.00
2022-10-25T04:49:24.585Z,98408.00
2022-10-25T04:51:54.404Z,98414.00
2022-10-25T04:54:24.271Z,98411.00
2022-10-25T04:56:54.143Z,98414.00
2022-10-25T04:59:23.962Z,98414.00
2022-10-25T05:01:53.797Z,98423.00
2022-10-25T05:04:26.486Z,98420.00
2022-10-25T05:06:56.337Z,98426.00
2022-10-25T05:09:26.339Z,98424.00
2022-10-25T05:11:56.178Z,98423.00
2022-10-25T05:14:25.998Z,98438.00
2022-10-25T05:16:55.829Z,98448.00
2022-10-25T05:19:28.260Z,98443.00
2022-10-25T05:21:58.105Z,98443.00
2022-10-25T05:24:28.131Z,98452.00
2022-10-25T05:26:57.982Z,98432.00
2022-10-25T05:29:27.825Z,98434.00
2022-10-25T05:31:57.656Z,98437.00
2022-10-25T05:34:30.112Z,98443.00
2022-10-25T05:37:00.789Z,98439.00
2022-10-25T05:39:30.645Z,98432.00
2022-10-25T05:42:02.590Z,98444.00
2022-10-25T05:44:32.485Z,98436.00
2022-10-25T05:47:02.329Z,98453.00
2022-10-25T05:49:39.660Z,98466.00
2022-10-25T05:52:09.519Z,98469.00
2022-10-25T05:54:39.354Z,98483.00
2022-10-25T05:57:09.223Z,98489.00
2022-10-25T05:59:39.069Z,98492.00
2022-10-25T06:02:08.975Z,98483.00
2022-10-25T06:04:41.513Z,98489.00
2022-10-25T06:07:11.340Z,98486.00
2022-10-25T06:09:41.183Z,98490.00
2022-10-25T06:12:11.061Z,98479.00
2022-10-25T06:14:40.898Z,98490.00
2022-10-25T06:17:10.759Z,98486.00
2022-10-25T06:19:43.209Z,98479.00
2022-10-25T06:22:13.061Z,98479.00
2022-10-25T06:24:42.924Z,98482.00
2022-10-25T06:27:12.828Z,98478.00
2022-10-25T06:29:42.652Z,98495.00
2022-10-25T06:32:12.532Z,98490.00
2022-10-25T06:34:44.973Z,98491.00
2022-10-25T06:37:15.551Z,98485.00
2022-10-25T06:39:45.383Z,98495.00
2022-10-25T06:42:15.198Z,98486.00
2022-10-25T06:44:45.066Z,98492.00
2022-10-25T06:47:17.691Z,98484.00
2022-10-25T06:49:51.290Z,98492.00
2022-10-25T06:52:21.154Z,98498.00
2022-10-25T06:54:50.999Z,98490.00
2022-10-25T06:57:20.898Z,98493.00
2022-10-25T06:59:50.803Z,98493.00
2022-10-25T07:02:20.798Z,98500.00
2022-10-25T07:04:53.355Z,98509.00
2022-10-25T07:07:23.392Z,98511.00
2022-10-25T07:09:53.230Z,98513.00
2022-10-25T07:12:23.134Z,98522.00
2022-10-25T07:14:53.010Z,98513.00
2022-10-25T07:17:22.849Z,98499.00
2022-10-25T07:19:55.283Z,98508.00
2022-10-25T07:22:25.103Z,98502.00
2022-10-25T07:24:54.972Z,98497.00
2022-10-25T07:27:25.427Z,98502.00
2022-10-25T07:29:55.246Z,98510.00
2022-10-25T07:32:25.080Z,98515.00
2022-10-25T07:37:28.259Z,98527.00
2022-10-25T07:39:58.125Z,98516.00
2022-10-25T07:42:27.981Z,98518.00
2022-10-25T07:44:57.797Z,98514.00
2022-10-25T07:47:27.663Z,98514.00
2022-10-25T07:50:00.593Z,98523.00
2022-10-25T07:52:30.438Z,98523.00
2022-10-25T07:55:00.295Z,98527.00
2022-10-25T07:57:30.209Z,98531.00
2022-10-25T08:00:00.911Z,98542.00
2022-10-25T08:02:30.809Z,98541.00
2022-10-25T08:05:03.240Z,98511.00
2022-10-25T08:07:33.107Z,98542.00
2022-10-25T08:10:02.975Z,98544.00
2022-10-25T08:12:32.814Z,98537.00
2022-10-25T08:15:02.666Z,98543.00
2022-10-25T08:17:32.615Z,98534.00
2022-10-25T08:20:05.099Z,98536.00
2022-10-25T08:22:34.985Z,98544.00
2022-10-25T08:25:05.452Z,98555.00
2022-10-25T08:27:35.506Z,98554.00
2022-10-25T08:30:05.341Z,98548.00
2022-10-25T08:32:35.210Z,98557.00
2022-10-25T08:35:08.208Z,98551.00
2022-10-25T08:37:38.081Z,98554.00
2022-10-25T08:40:10.345Z,98549.00
2022-10-25T08:42:54.746Z,98550.00
2022-10-25T08:45:27.750Z,98562.00
2022-10-25T08:47:59.710Z,98567.00
2022-10-25T08:50:38.734Z,98572.00
2022-10-25T08:53:12.110Z,98567.00
2022-10-25T08:55:58.674Z,98561.00
2022-10-25T08:58:37.998Z,98570.00
2022-10-25T09:01:15.049Z,98570.00
2022-10-25T09:03:45.099Z,98572.00
2022-10-25T09:06:26.030Z,98574.00
2022-10-25T09:09:08.262Z,98575.00
2022-10-25T09:11:50.491Z,98581.00
2022-10-25T09:14:26.095Z,98588.00
2022-10-25T09:16:56.998Z,98585.00
2022-10-25T09:19:36.431Z,98592.00
2022-10-25T09:22:13.326Z,98590.00
2022-10-25T09:24:48.467Z,98594.00
2022-10-25T09:27:22.160Z,98598.00
2022-10-25T09:29:56.042Z,98601.00
2022-10-25T09:32:28.650Z,98608.00
2022-10-25T09:34:58.620Z,98608.00
2022-10-25T09:37:34.235Z,98605.00
2022-10-25T09:40:09.002Z,98600.00
2022-10-25T09:42:41.508Z,98608.00
2022-10-25T09:45:20.129Z,98606.00
2022-10-25T09:47:55.991Z,98611.00
2022-10-25T09:50:30.413Z,98623.00
2022-10-25T09:53:11.725Z,98629.00
2022-10-25T09:55:46.770Z,98623.00
2022-10-25T09:58:21.278Z,98622.00
2022-10-25T10:00:52.276Z,98625.00
2022-10-25T10:03:22.476Z,98617.00
2022-10-25T10:05:55.363Z,98621.00
2022-10-25T10:08:28.182Z,98614.00
2022-10-25T10:10:59.164Z,98605.00
2022-10-25T10:13:34.537Z,98616.00
2022-10-25T10:16:06.463Z,98628.00
2022-10-25T10:18:37.445Z,98618.00
2022-10-25T10:21:16.482Z,98620.00
2022-10-25T10:24:00.063Z,98600.00
2022-10-25T10:26:33.383Z,98608.00
2022-10-25T10:29:09.162Z,98612.00
2022-10-25T10:31:40.322Z,98619.00
2022-10-25T10:34:32.882Z,98617.00
2022-10-25T10:37:16.256Z,98624.00
2022-10-25T10:39:56.985Z,98615.00
2022-10-25T10:42:36.458Z,98623.00
2022-10-25T10:45:18.421Z,98621.00
2022-10-25T10:47:58.133Z,98616.00
2022-10-25T10:50:32.823Z,98624.00
2022-10-25T10:53:04.204Z,98634.00
2022-10-25T10:55:38.442Z,98628.00
2022-10-25T10:58:10.133Z,98629.00
2022-10-25T11:00:40.124Z,98618.00
2022-10-25T11:03:13.158Z,98631.00
2022-10-25T11:05:45.469Z,98623.00
2022-10-25T11:08:21.776Z,98627.00
2022-10-25T11:10:54.231Z,98626.00
2022-10-25T11:13:28.043Z,98620.00
2022-10-25T11:16:27.310Z,98616.00
2022-10-25T11:19:11.389Z,98619.00
2022-10-25T11:21:51.067Z,98627.00
2022-10-25T11:24:28.693Z,98625.00
2022-10-25T11:27:07.959Z,98619.00
2022-10-25T11:29:53.593Z,98612.00
2022-10-25T11:32:51.217Z,98618.00
2022-10-25T11:35:34.105Z,98621.00
2022-10-25T11:38:06.468Z,98623.00
2022-10-25T11:40:41.676Z,98618.00
2022-10-25T11:43:30.121Z,98623.00
2022-10-25T11:46:02.778Z,98616.00
2022-10-25T11:48:44.683Z,98618.00
2022-10-25T11:51:22.941Z,98619.00
2022-10-25T11:54:11.280Z,98618.00
2022-10-25T11:56:47.924Z,98628.00
2022-10-25T11:59:23.118Z,98631.00
2022-10-25T12:02:13.541Z,98626.00
2022-10-25T12:04:55.301Z,98632.00
2022-10-25T12:07:30.229Z,98626.00
2022-10-25T12:10:08.645Z,98636.00
2022-10-25T12:12:43.865Z,98634.00
2022-10-25T12:15:22.169Z,98639.00
2022-10-25T12:17:53.347Z,98634.00
2022-10-25T12:20:26.534Z,98626.00
2022-10-25T12:22:59.169Z,98620.00
2022-10-25T12:25:32.717Z,98623.00
2022-10-25T12:28:07.793Z,98613.00
2022-10-25T12:30:41.358Z,98619.00
2022-10-25T12:33:17.750Z,98608.00
2022-10-25T12:35:51.624Z,98605.00
2022-10-25T12:38:36.022Z,98606.00
2022-10-25T12:41:11.580Z,98611.00
2022-10-25T12:43:47.238Z,98602.00
2022-10-25T12:46:49.330Z,98610.00
2022-10-25T12:50:03.829Z,98621.00
2022-10-25T12:52:36.623Z,98614.00
2022-10-25T12:55:38.798Z,98620.00
2022-10-25T12:58:26.850Z,98622.00
2022-10-25T13:01:12.397Z,98619.00
2022-10-25T13:04:13.018Z,98620.00
2022-10-25T13:06:43.300Z,98620.00
2022-10-25T13:09:14.796Z,98625.00
2022-10-25T13:11:52.118Z,98614.00
2022-10-25T13:14:28.458Z,98620.00
2022-10-25T13:17:27.927Z,98618.00
2022-10-25T13:20:35.355Z,98623.00
2022-10-25T13:23:50.245Z,98619.00
2022-10-25T13:26:21.745Z,98626.00
2022-10-25T13:28:53.045Z,98628.00
2022-10-25T13:31:34.548Z,98621.00
2022-10-25T13:34:32.041Z,98619.00
2022-10-25T13:37:05.925Z,98614.00
2022-10-25T13:39:40.090Z,98611.00
2022-10-25T13:42:24.353Z,98601.00
2022-10-25T13:44:58.014Z,98602.00
2022-10-25T13:47:41.392Z,98608.00
2022-10-25T13:50:19.055Z,98606.00
2022-10-25T13:53:01.557Z,98607.00
2022-10-25T13:55:36.651Z,98605.00
2022-10-25T13:58:46.328Z,98609.00
2022-10-25T14:01:55.182Z,98608.00
2022-10-25T14:04:36.144Z,98599.00
2022-10-25T14:07:36.006Z,98590.00
2022-10-25T14:10:06.549Z,98603.00
2022-10-25T14:12:36.688Z,98597.00
2022-10-25T14:15:12.176Z,98598.00
2022-10-25T14:17:44.961Z,98591.00
2022-10-25T14:20:31.073Z,98601.00
2022-10-25T14:23:03.225Z,98600.00
2022-10-25T14:25:37.043Z,98604.00
2022-10-25T14:28:09.007Z,98606.00
2022-10-25T14:30:45.186Z,98608.00
2022-10-25T14:33:29.275Z,98606.00
2022-10-25T14:36:01.479Z,98610.00
2022-10-25T14:38:31.378Z,98611.00
2022-10-25T14:41:03.257Z,98610.00
2022-10-25T14:43:35.039Z,98602.00
2022-10-25T14:46:15.794Z,98605.00
2022-10-25T14:48:48.125Z,98618.00
2022-10-25T14:51:21.979Z,98617.00
2022-10-25T14:53:55.497Z,98630.00
2022-10-25T14:56:31.638Z,98628.00
2022-10-25T14:59:02.330Z,98632.00
2022-10-25T15:01:34.860Z,98632.00
2022-10-25T15:04:04.997Z,98645.00
2022-10-25T15:06:35.372Z,98643.00
2022-10-25T15:12:19.211Z,98639.00
2022-10-25T15:14:49.130Z,98645.00
2022-10-25T15:17:27.962Z,98637.00
2022-10-25T15:20:07.439Z,98637.00
2022-10-25T15:22:45.898Z,98641.00
2022-10-25T15:25:31.967Z,98643.00
2022-10-25T15:28:12.148Z,98650.00
2022-10-25T15:30:43.554Z,98658.00
2022-10-25T15:33:18.625Z,98657.00
2022-10-25T15:35:51.811Z,98669.00
2022-10-25T15:38:22.176Z,98659.00
2022-10-25T15:40:52.386Z,98656.00
2022-10-25T15:43:22.217Z,98666.00
2022-10-25T15:45:52.135Z,98660.00
2022-10-25T15:48:26.743Z,98658.00
2022-10-25T15:50:58.546Z,98663.00
2022-10-25T15:53:28.430Z,98661.00
2022-10-25T15:55:58.236Z,98668.00
2022-10-25T15:58:28.231Z,98669.00
2022-10-25T16:00:58.127Z,98671.00
2022-10-25T16:03:30.666Z,98674.00
2022-10-25T16:06:00.605Z,98668.00
2022-10-25T16:08:30.511Z,98678.00
2022-10-25T16:11:00.688Z,98675.00
2022-10-25T16:13:33.394Z,98676.00
2022-10-25T16:16:11.811Z,98672.00
2022-10-25T16:18:54.798Z,98668.00
2022-10-25T16:21:26.721Z,98667.00
2022-10-25T16:23:56.575Z,98672.00
2022-10-25T16:26:32.605Z,98684.00
2022-10-25T16:29:02.466Z,98685.00
2022-10-25T16:31:32.294Z,98694.00
2022-10-25T16:34:04.769Z,98698.00
2022-10-25T16:36:34.632Z,98713.00
2022-10-25T16:39:04.461Z,98739.00
2022-10-25T16:41:34.342Z,98733.00
2022-10-25T16:44:04.158Z,98738.00
2022-10-25T16:46:34.007Z,98738.00
2022-10-25T16:49:06.486Z,98735.00
2022-10-25T16:51:37.140Z,98746.00
2022-10-25T16:54:07.494Z,98728.00
2022-10-25T16:56:37.345Z,98720.00
2022-10-25T16:59:07.189Z,98718.00
2022-10-25T17:01:40.029Z,98723.00
2022-10-25T17:04:13.840Z,98722.00
2022-10-25T17:06:43.715Z,98726.00
2022-10-25T17:09:14.152Z,98728.00
2022-10-25T17:11:44.008Z,98727.00
2022-10-25T17:14:14.858Z,98725.00
2022-10-25T17:16:46.385Z,98734.00
2022-10-25T17:19:18.869Z,98736.00
2022-10-25T17:21:48.714Z,98733.00
2022-10-25T17:24:18.546Z,98733.00
2022-10-25T17:26:49.123Z,98740.00
2022-10-25T17:29:19.166Z,98735.00
2022-10-25T17:31:49.004Z,98743.00
2022-10-25T17:34:21.497Z,98749.00
2022-10-25T17:39:42.412Z,98742.00
2022-10-25T17:42:12.281Z,98741.00
2022-10-25T17:44:52.300Z,98738.00
2022-10-25T17:47:22.397Z,98732.00
2022-10-25T17:49:55.002Z,98739.00
2022-10-25T17:52:24.842Z,98747.00
2022-10-25T17:54:54.650Z,98747.00
2022-10-25T17:57:24.525Z,98744.00
2022-10-25T17:59:54.371Z,98736.00
2022-10-25T18:02:24.311Z,98743.00
2022-10-25T18:05:18.861Z,98744.00
2022-10-25T18:07:47.005Z,98742.00
2022-10-25T18:10:17.289Z,98742.00
2022-10-25T18:12:47.438Z,98743.00
2022-10-25T18:15:17.573Z,98735.00
2022-10-25T18:17:47.794Z,98734.00
2022-10-25T18:20:24.660Z,98733.00
2022-10-25T18:22:55.873Z,98726.00
2022-10-25T18:25:25.748Z,98722.00
2022-10-25T18:27:55.667Z,98722.00
2022-10-25T18:30:25.564Z,98721.00
2022-10-25T18:32:55.404Z,98721.00
2022-10-25T18:35:27.943Z,98724.00
2022-10-25T18:37:58.368Z,98733.00
2022-10-25T18:40:28.265Z,98734.00
2022-10-25T18:42:59.467Z,98726.00
2022-10-25T18:45:29.740Z,98729.00
2022-10-25T18:47:59.607Z,98730.00
2022-10-25T18:50:32.683Z,98731.00
2022-10-25T18:53:02.515Z,98732.00
2022-10-25T18:55:32.459Z,98731.00
2022-10-25T18:58:03.517Z,98733.00
2022-10-25T19:00:33.540Z,98737.00
2022-10-25T19:03:03.509Z,98739.00
2022-10-25T19:05:40.047Z,98728.00
2022-10-25T19:08:10.438Z,98735.00
2022-10-25T19:10:40.438Z,98734.00
2022-10-25T19:13:18.551Z,98736.00
2022-10-25T19:15:48.689Z,98735.00
2022-10-25T19:18:19.207Z,98732.00
2022-10-25T19:20:54.800Z,98735.00
2022-10-25T19:23:25.001Z,98739.00
2022-10-25T19:25:54.877Z,98737.00
2022-10-25T19:28:24.742Z,98743.00
2022-10-25T19:30:54.746Z,98744.00
2022-10-25T19:33:24.625Z,98752.00
2022-10-25T19:35:59.622Z,98744.00
2022-10-25T19:38:29.540Z,98743.00
2022-10-25T19:41:02.302Z,98755.00
2022-10-25T19:43:32.449Z,98753.00
2022-10-25T19:46:04.934Z,98750.00
2022-10-25T19:48:35.363Z,98752.00
2022-10-25T19:51:12.695Z,98756.00
2022-10-25T19:53:43.172Z,98763.00
2022-10-25T19:56:14.822Z,98751.00
2022-10-25T19:58:45.189Z,98754.00
2022-10-25T20:01:16.799Z,98751.00
2022-10-25T20:03:48.153Z,98758.00
2022-10-25T20:06:24.691Z,98756.00
2022-10-25T20:08:55.289Z,98748.00
2022-10-25T20:11:26.050Z,98757.00
2022-10-25T20:13:57.244Z,98753.00
2022-10-25T20:16:27.781Z,98754.00
2022-10-25T20:18:58.042Z,98745.00
2022-10-25T20:21:34.162Z,98753.00
2022-10-25T20:24:05.718Z,98754.00
2022-10-25T20:26:38.893Z,98759.00
2022-10-25T20:29:10.067Z,98746.00
2022-10-25T20:31:39.950Z,98759.00
2022-10-25T20:34:09.774Z,98760.00
2022-10-25T20:36:42.270Z,98765.00
2022-10-25T20:39:13.849Z,98764.00
2022-10-25T20:41:43.714Z,98766.00
2022-10-25T20:44:14.823Z,98772.00
2022-10-25T20:46:44.796Z,98774.00
2022-10-25T20:49:14.613Z,98779.00
2022-10-25T20:51:47.091Z,98780.00
2022-10-25T20:54:17.086Z,98766.00
2022-10-25T20:56:46.922Z,98773.00
2022-10-25T20:59:16.771Z,98770.00
2022-10-25T21:01:47.016Z,98768.00
2022-10-25T21:04:25.846Z,98775.00
2022-10-25T21:07:08.611Z,98785.00
2022-10-25T21:09:38.450Z,98785.00
2022-10-25T21:12:08.797Z,98779.00
2022-10-25T21:17:28.415Z,98780.00
2022-10-25T21:19:58.282Z,98771.00
2022-10-25T21:22:30.982Z,98756.00
2022-10-25T21:25:00.856Z,98773.00
2022-10-25T21:27:30.678Z,98767.00
2022-10-25T21:30:00.502Z,98765.00
2022-10-25T21:32:30.334Z,98767.00
2022-10-25T21:35:00.179Z,98767.00
2022-10-25T21:37:32.646Z,98758.00
2022-10-25T21:40:02.480Z,98751.00
2022-10-25T21:42:33.853Z,98767.00
2022-10-25T21:45:03.722Z,98767.00
2022-10-25T21:47:33.559Z,98764.00
2022-10-25T21:50:03.385Z,98761.00
2022-10-25T21:52:35.861Z,98765.00
2022-10-25T21:55:05.827Z,98761.00
2022-10-25T21:57:36.437Z,98772.00
2022-10-25T22:00:07.300Z,98774.00
2022-10-25T22:05:12.586Z,98771.00
2022-10-25T22:07:45.057Z,98767.00
2022-10-25T22:10:15.013Z,98770.00
2022-10-25T22:12:45.117Z,98767.00
2022-10-25T22:15:15.227Z,98767.00
2022-10-25T22:17:45.166Z,98764.00
2022-10-25T22:20:15.109Z,98773.00
2022-10-25T22:22:47.830Z,98763.00
2022-10-25T22:25:18.131Z,98763.00
2022-10-25T22:27:48.087Z,98767.00
2022-10-25T22:30:18.457Z,98771.00
2022-10-25T22:32:48.478Z,98768.00
2022-10-25T22:35:18.627Z,98778.00
2022-10-25T22:37:51.193Z,98780.00
2022-10-25T22:40:21.093Z,98780.00
2022-10-25T22:42:50.914Z,98780.00
2022-10-25T22:45:20.778Z,98777.00
2022-10-25T22:47:51.297Z,98781.00
2022-10-25T22:50:21.294Z,98788.00
2022-10-25T22:52:53.798Z,98778.00
2022-10-25T22:55:23.663Z,98770.00
2022-10-25T22:57:54.485Z,98778.00
2022-10-25T23:00:24.362Z,98771.00
2022-10-25T23:02:56.537Z,98773.00
2022-10-25T23:05:26.394Z,98765.00
2022-10-25T23:07:58.962Z,98771.00
2022-10-25T23:10:28.798Z,98776.00
2022-10-25T23:12:58.625Z,98775.00
2022-10-25T23:15:28.495Z,98781.00
2022-10-25T23:17:58.326Z,98775.00
2022-10-25T23:20:28.167Z,98776.00
2022-10-25T23:23:00.609Z,98777.00
2022-10-25T23:25:30.465Z,98774.00
2022-10-25T23:28:00.286Z,98773.00
2022-10-25T23:30:33.654Z,98771.00
2022-10-25T23:33:03.568Z,98778.00
2022-10-25T23:35:34.628Z,98779.00
2022-10-25T23:55:33.046Z,98777.00
2022-10-25T23:58:02.913Z,98774.00
